Time;durP1;ratioP1;P1;durP2;ratioP2;P2;SDS_P1;SDS_P2;PMS_P1;PMS_P2;Temp;Humidity;BMP_temperature;BMP_pressure;BME280_temperature;BME280_humidity;BME280_pressure;Samples;Min_cycle;Max_cycle;Signal;HPM_P1;HPM_P2
2023/06/08 00:01:19;;;;;;;2.70;2.47;;;;;;;19.71;57.31;96883.41;10485811;28;20057;-72
2023/06/08 00:06:41;;;;;;;3.40;2.45;;;;;;;19.70;57.18;96879.91;10514732;28;20048;-72
2023/06/08 00:12:03;;;;;;;2.92;2.63;;;;;;;19.69;57.34;96875.63;10514196;28;20040;-72
2023/06/08 00:17:23;;;;;;;2.63;2.42;;;;;;;19.69;57.36;96882.94;10498843;28;20045;-72
2023/06/08 00:22:43;;;;;;;3.05;2.75;;;;;;;19.70;56.94;96885.31;10514746;28;20382;-72
2023/06/08 00:28:03;;;;;;;2.75;2.47;;;;;;;19.70;57.15;96881.84;10512391;28;20078;-72
2023/06/08 00:33:22;;;;;;;4.38;2.60;;;;;;;19.69;57.15;96885.66;10484610;28;20044;-72
2023/06/08 00:38:43;;;;;;;2.92;2.08;;;;;;;19.69;57.15;96885.66;10498563;28;20578;-72
2023/06/08 00:44:07;;;;;;;2.47;2.28;;;;;;;19.68;57.16;96881.34;10513111;28;20041;-72
2023/06/08 00:49:30;;;;;;;2.30;2.10;;;;;;;19.68;57.16;96879.44;10484236;28;20448;-72
2023/06/08 00:54:50;;;;;;;2.45;2.25;;;;;;;19.68;57.12;96882.16;10497884;28;20048;-72
2023/06/08 01:00:11;;;;;;;2.63;2.42;;;;;;;19.68;57.10;96873.22;10482513;28;20110;-72
2023/06/08 01:05:32;;;;;;;3.22;2.47;;;;;;;19.66;57.05;96870.88;10497628;28;20094;-71
2023/06/08 01:11:04;;;;;;;2.33;2.10;;;;;;;19.68;57.02;96881.34;10483356;28;20071;-72
2023/06/08 01:16:28;;;;;;;2.40;2.10;;;;;;;19.67;57.10;96874.38;10482796;28;20033;-72
2023/06/08 01:22:14;;;;;;;2.40;2.20;;;;;;;19.66;57.17;96878.16;10483021;28;20051;-72
2023/06/08 01:27:36;;;;;;;2.40;2.20;;;;;;;19.67;57.10;96874.38;10496729;28;20055;-72
2023/06/08 01:32:56;;;;;;;2.53;2.33;;;;;;;19.65;57.06;96871.97;10511217;28;20051;-72
2023/06/08 01:38:23;;;;;;;2.35;2.15;;;;;;;19.65;57.30;96877.38;10496090;28;20040;-72
2023/06/08 01:43:44;;;;;;;2.25;2.05;;;;;;;19.65;56.99;96868.50;10481921;28;20158;-72
2023/06/08 01:49:05;;;;;;;2.50;2.17;;;;;;;19.65;56.99;96865.78;10495975;28;20511;-71
2023/06/08 01:54:25;;;;;;;2.60;2.40;;;;;;;19.64;57.05;96866.88;10495798;28;20044;-72
2023/06/08 01:59:45;;;;;;;2.22;2.10;;;;;;;19.65;56.99;96860.38;10511169;28;20480;-72
2023/06/08 02:05:08;;;;;;;1.95;1.85;;;;;;;19.63;56.92;96855.28;10482455;28;20139;-72
2023/06/08 02:10:29;;;;;;;2.33;2.13;;;;;;;19.64;56.76;96859.59;10495400;28;20048;-72
2023/06/08 02:15:48;;;;;;;2.17;1.98;;;;;;;19.63;56.95;96862.63;10481449;28;20476;-72
2023/06/08 02:21:09;;;;;;;2.40;2.20;;;;;;;19.64;56.82;96858.78;10467346;28;20400;-72
2023/06/08 02:26:28;;;;;;;2.70;2.50;;;;;;;19.64;56.81;96850.66;10495041;28;20037;-72
2023/06/08 02:31:48;;;;;;;2.20;2.00;;;;;;;19.62;56.88;96855.59;10467347;28;20094;-72
2023/06/08 02:37:08;;;;;;;2.13;1.92;;;;;;;19.62;56.81;96861.81;10467516;28;20045;-72
2023/06/08 02:42:29;;;;;;;1.90;1.80;;;;;;;19.62;56.81;96855.59;10453481;28;20044;-72
2023/06/08 02:47:49;;;;;;;2.40;2.20;;;;;;;19.62;56.90;96861.00;10453385;28;20087;-72
2023/06/08 02:53:11;;;;;;;2.42;2.20;;;;;;;19.60;56.83;96852.44;10453307;28;20049;-72
2023/06/08 02:58:31;;;;;;;2.20;2.00;;;;;;;19.61;56.71;96854.03;10467149;28;20048;-71
2023/06/08 03:03:51;;;;;;;2.22;2.00;;;;;;;19.62;56.89;96858.31;10429500;28;20053;-72
2023/06/08 03:09:14;;;;;;;2.00;1.90;;;;;;;19.61;56.63;96854.03;10453372;28;20063;-72
2023/06/08 03:14:40;;;;;;;2.33;2.13;;;;;;;19.61;56.82;96854.03;10453677;28;20041;-72
2023/06/08 03:20:02;;;;;;;2.50;1.95;;;;;;;19.59;56.78;96862.47;10439003;28;20041;-72
2023/06/08 03:25:25;;;;;;;2.70;2.00;;;;;;;19.60;56.81;96849.72;10443074;28;20499;-72
2023/06/08 03:30:45;;;;;;;2.28;1.90;;;;;;;19.59;56.66;96850.88;10482875;28;20044;-72
2023/06/08 03:36:06;;;;;;;2.20;2.00;;;;;;;19.58;56.79;96843.88;10500995;28;20040;-72
2023/06/08 03:41:32;;;;;;;1.88;1.77;;;;;;;19.59;56.75;96850.88;10487717;28;20044;-72
2023/06/08 03:46:52;;;;;;;2.22;2.03;;;;;;;19.58;56.65;96854.66;10486514;28;20037;-72
2023/06/08 03:52:12;;;;;;;3.05;2.00;;;;;;;19.59;56.76;96853.56;10500482;28;20048;-72
2023/06/08 03:57:32;;;;;;;2.20;2.00;;;;;;;19.59;56.64;96856.28;10500315;28;20041;-71
2023/06/08 04:02:53;;;;;;;2.00;1.90;;;;;;;19.58;56.67;96858.16;10479080;28;20065;-72
2023/06/08 04:08:17;;;;;;;2.28;2.08;;;;;;;19.58;56.70;96857.38;10499844;28;20135;-72
2023/06/08 04:13:40;;;;;;;1.98;1.88;;;;;;;19.56;56.89;96855.81;10485622;28;20099;-72
2023/06/08 04:19:03;;;;;;;3.17;2.88;;;;;;;19.56;56.91;96853.09;10499600;28;20048;-72
2023/06/08 04:24:23;;;;;;;2.22;2.00;;;;;;;19.56;57.27;96863.91;10499163;28;20036;-72
2023/06/08 04:29:43;;;;;;;1.83;1.73;;;;;;;19.55;57.17;96865.00;10484715;28;20102;-72
2023/06/08 04:35:04;;;;;;;3.08;2.50;;;;;;;19.55;57.50;96861.53;10475664;28;20040;-72
2023/06/08 04:40:25;;;;;;;2.22;2.00;;;;;;;19.56;57.73;96866.59;10483305;28;20045;-72
2023/06/08 04:45:45;;;;;;;2.65;2.45;;;;;;;19.56;57.61;96863.91;10498068;28;20055;-72
2023/06/08 04:51:09;;;;;;;2.20;2.00;;;;;;;19.56;57.79;96865.78;10483929;28;20048;-72
2023/06/08 04:56:29;;;;;;;2.83;2.22;;;;;;;19.56;57.54;96869.31;10484294;28;20430;-72
2023/06/08 05:01:49;;;;;;;3.92;3.22;;;;;;;19.54;57.58;96866.13;10492676;28;20052;-72
2023/06/08 05:07:08;;;;;;;3.25;2.95;;;;;;;19.55;57.69;96872.34;10442106;28;20103;-72
2023/06/08 05:12:28;;;;;;;10.65;6.70;;;;;;;19.49;59.56;96866.31;10455075;28;20494;-72
2023/06/08 05:17:47;;;;;;;7.38;5.32;;;;;;;19.49;59.05;96865.50;10455572;28;20045;-71
2023/06/08 05:23:07;;;;;;;11.63;5.68;;;;;;;19.51;58.54;96872.19;10455237;28;20040;-72
2023/06/08 05:28:26;;;;;;;10.90;6.10;;;;;;;19.51;58.19;96871.38;10460302;28;20640;-71
2023/06/08 05:33:46;;;;;;;11.55;6.85;;;;;;;19.50;58.15;96869.78;10482342;28;20044;-72
2023/06/08 05:39:05;;;;;;;16.42;7.82;;;;;;;19.51;58.24;96866.78;10482049;28;20047;-71
2023/06/08 05:44:24;;;;;;;14.52;7.22;;;;;;;19.51;58.19;96879.50;10496173;28;20047;-72
2023/06/08 05:49:44;;;;;;;15.13;7.10;;;;;;;19.51;58.46;96876.78;10481291;28;20041;-72
2023/06/08 05:55:05;;;;;;;11.75;7.07;;;;;;;19.50;58.51;96878.72;10495956;28;20124;-71
2023/06/08 06:00:25;;;;;;;13.65;7.22;;;;;;;19.50;58.46;96875.19;10479861;28;20447;-72
2023/06/08 06:05:44;;;;;;;10.52;7.50;;;;;;;19.50;58.56;96873.31;10495461;28;20098;-72
2023/06/08 06:11:04;;;;;;;12.10;7.57;;;;;;;19.50;58.61;96881.41;10495558;28;20040;-72
2023/06/08 06:16:24;;;;;;;14.93;7.68;;;;;;;19.49;58.56;96877.09;10510554;28;20044;-71
2023/06/08 06:21:43;;;;;;;11.50;7.10;;;;;;;19.50;58.38;96875.19;10495148;28;20044;-72
2023/06/08 06:27:03;;;;;;;10.80;7.50;;;;;;;19.50;58.34;96881.41;10510199;28;20040;-71
2023/06/08 06:32:23;;;;;;;8.98;6.22;;;;;;;19.49;58.46;96885.22;10502895;28;20048;-71
2023/06/08 06:37:43;;;;;;;10.52;6.80;;;;;;;19.49;58.49;96887.91;10509022;28;20119;-71
2023/06/08 06:43:03;;;;;;;8.05;6.30;;;;;;;19.49;58.32;96885.22;10480630;28;20044;-71
2023/06/08 06:48:45;;;;;;;8.20;6.07;;;;;;;19.49;58.37;96889.84;10508901;28;20047;-72
2023/06/08 06:54:05;;;;;;;8.38;6.05;;;;;;;19.49;58.58;96896.03;10508723;28;20094;-72
2023/06/08 06:59:24;;;;;;;13.80;6.88;;;;;;;19.49;58.92;96885.22;10498721;28;20040;-72
2023/06/08 07:04:44;;;;;;;6.82;5.97;;;;;;;19.50;59.19;96878.72;10504137;28;20053;-72
2023/06/08 07:10:04;;;;;;;8.00;5.55;;;;;;;19.51;59.44;96882.19;10502177;28;20045;-72
2023/06/08 07:15:23;;;;;;;7.72;5.50;;;;;;;19.51;59.33;96882.97;10516985;28;20045;-72
2023/06/08 07:20:43;;;;;;;11.07;6.25;;;;;;;19.50;59.32;96881.41;10516754;28;20403;-72
2023/06/08 07:26:03;;;;;;;11.27;6.70;;;;;;;19.51;59.31;96887.59;10515511;28;20400;-71
2023/06/08 07:31:23;;;;;;;12.90;6.75;;;;;;;19.51;59.51;96888.38;10498631;28;20045;-71
2023/06/08 07:36:42;;;;;;;13.27;7.13;;;;;;;19.52;59.49;96884.59;10502274;28;20037;-72
2023/06/08 07:42:03;;;;;;;13.63;6.43;;;;;;;19.51;59.62;96882.97;10486951;28;20408;-72
2023/06/08 07:47:23;;;;;;;15.27;7.22;;;;;;;19.52;59.86;96883.78;10500853;28;20044;-72
2023/06/08 07:52:42;;;;;;;13.75;7.07;;;;;;;19.51;59.81;96885.69;10486641;28;20131;-72
2023/06/08 07:58:01;;;;;;;13.63;7.72;;;;;;;19.51;59.83;96882.97;10501414;28;20037;-71
2023/06/08 08:03:21;;;;;;;12.23;6.78;;;;;;;19.51;59.98;96885.69;10491666;28;20412;-71
2023/06/08 08:08:41;;;;;;;10.95;7.03;;;;;;;19.52;59.91;96881.06;10485400;28;20183;-72
2023/06/08 08:14:00;;;;;;;11.32;7.13;;;;;;;19.52;59.86;96887.28;10499768;28;20476;-72
2023/06/08 08:19:20;;;;;;;10.60;6.63;;;;;;;19.52;59.98;96884.59;10499414;28;20481;-71
2023/06/08 08:24:39;;;;;;;8.18;6.50;;;;;;;19.51;59.98;96885.69;10500441;28;20397;-71
2023/06/08 08:29:59;;;;;;;9.50;6.50;;;;;;;19.52;60.01;96890.00;10485043;28;20056;-72
2023/06/08 08:35:19;;;;;;;13.05;6.68;;;;;;;19.53;60.34;96886.16;10484737;28;20052;-72
2023/06/08 08:40:43;;;;;;;9.27;6.30;;;;;;;19.52;60.10;96879.19;10484638;28;20036;-72
2023/06/08 08:46:03;;;;;;;11.82;7.18;;;;;;;19.52;60.07;96870.25;10498377;28;20041;-72
2023/06/08 08:51:24;;;;;;;10.10;6.72;;;;;;;19.53;60.23;96877.25;10498263;28;20051;-72
2023/06/08 08:56:44;;;;;;;8.48;6.35;;;;;;;19.53;60.38;96875.34;10498464;28;20047;-74
2023/06/08 09:02:05;;;;;;;8.43;6.05;;;;;;;19.54;60.43;96882.34;10483710;28;20385;-74
2023/06/08 09:07:24;;;;;;;10.70;5.43;;;;;;;19.53;60.71;96875.34;10483523;28;20389;-74
2023/06/08 09:12:49;;;;;;;8.32;6.10;;;;;;;19.54;60.58;96874.25;10512352;28;20450;-74
2023/06/08 09:18:17;;;;;;;8.68;6.75;;;;;;;19.54;60.74;96868.03;10497245;28;20044;-74
2023/06/08 09:23:36;;;;;;;7.82;6.07;;;;;;;19.54;61.04;96860.72;10481860;28;20044;-74
2023/06/08 09:28:56;;;;;;;8.48;6.18;;;;;;;19.54;60.93;96863.44;10496485;28;20067;-73
2023/06/08 09:34:16;;;;;;;8.18;6.28;;;;;;;19.55;60.95;96861.53;10496566;28;20051;-74
2023/06/08 09:39:40;;;;;;;24.58;22.27;;;;;;;19.56;61.42;96861.22;10496538;28;20058;-73
2023/06/08 09:45:08;;;;;;;11.95;10.77;;;;;;;19.58;61.31;96855.44;10496466;28;20097;-73
2023/06/08 09:50:28;;;;;;;9.50;8.60;;;;;;;19.60;60.79;96852.44;10482337;28;20512;-73
2023/06/08 09:55:49;;;;;;;8.80;7.90;;;;;;;19.57;60.46;96848.47;10481974;28;20048;-73
2023/06/08 10:01:09;;;;;;;7.18;6.47;;;;;;;19.56;60.09;96850.41;10479417;28;20049;-73
2023/06/08 10:06:30;;;;;;;6.47;5.75;;;;;;;19.56;59.96;96853.09;10495693;28;20075;-73
2023/06/08 10:11:50;;;;;;;5.97;5.32;;;;;;;19.56;59.52;96855.81;10481390;28;20484;-73
2023/06/08 10:17:10;;;;;;;8.30;5.30;;;;;;;19.56;59.33;96847.69;10467686;28;20389;-73
2023/06/08 10:22:30;;;;;;;4.45;4.05;;;;;;;19.57;58.94;96843.06;10467525;28;20052;-73
2023/06/08 10:27:51;;;;;;;4.40;4.00;;;;;;;19.58;58.79;96835.75;10467618;28;20083;-73
2023/06/08 10:33:19;;;;;;;4.78;4.10;;;;;;;19.59;58.53;96829.25;10456078;28;20094;-73
2023/06/08 10:38:56;;;;;;;6.57;4.88;;;;;;;19.59;58.37;96823.84;10462341;28;20047;-73
2023/06/08 10:44:42;;;;;;;5.72;4.53;;;;;;;19.58;58.27;96820.31;10461907;28;20044;-73
2023/06/08 10:50:04;;;;;;;4.68;4.20;;;;;;;19.58;58.18;96811.44;10476771;28;20041;-73
2023/06/08 10:55:25;;;;;;;5.13;4.22;;;;;;;19.58;57.90;96803.31;10447654;28;20043;-73
2023/06/08 11:00:49;;;;;;;4.70;4.00;;;;;;;19.58;57.85;96800.63;10460872;28;20053;-71
2023/06/08 11:06:13;;;;;;;4.55;3.90;;;;;;;19.58;57.88;96795.22;10461150;28;20488;-71
2023/06/08 11:11:32;;;;;;;4.60;4.20;;;;;;;19.56;57.72;96801.75;10447097;28;20045;-71
2023/06/08 11:16:53;;;;;;;5.47;4.10;;;;;;;19.58;57.63;96796.00;10460419;28;20412;-71
2023/06/08 11:22:13;;;;;;;6.70;4.25;;;;;;;19.56;57.61;96793.66;10446220;28;20493;-71
2023/06/08 11:27:33;;;;;;;9.98;4.50;;;;;;;19.57;57.42;96775.53;10461362;28;20083;-71
2023/06/08 11:32:53;;;;;;;5.20;4.10;;;;;;;19.58;57.34;96770.91;10500611;28;20768;-71
2023/06/08 11:38:12;;;;;;;4.82;4.25;;;;;;;19.57;57.23;96772.81;10501158;28;20416;-71
2023/06/08 11:43:32;;;;;;;4.15;3.75;;;;;;;19.58;57.19;96771.69;10486132;28;20516;-71
2023/06/08 11:48:52;;;;;;;4.68;4.20;;;;;;;19.59;57.20;96775.19;10515731;28;20041;-71
2023/06/08 11:54:12;;;;;;;6.10;4.20;;;;;;;19.59;57.21;96764.41;10500419;28;20044;-71
2023/06/08 11:59:35;;;;;;;6.10;4.32;;;;;;;19.57;57.28;96775.53;10500165;28;20041;-71
2023/06/08 12:04:58;;;;;;;5.65;3.92;;;;;;;19.58;57.02;96763.56;10486222;28;20052;-71
2023/06/08 12:10:19;;;;;;;4.90;4.22;;;;;;;19.58;57.10;96760.88;10486064;28;20439;-71
2023/06/08 12:15:47;;;;;;;4.10;3.70;;;;;;;19.58;57.04;96760.09;10499603;28;20070;-71
2023/06/08 12:21:08;;;;;;;5.00;4.00;;;;;;;19.58;56.88;96760.09;10485633;28;20056;-71
2023/06/08 12:26:28;;;;;;;4.25;3.85;;;;;;;19.59;56.86;96759.00;10499308;28;20044;-71
2023/06/08 12:31:48;;;;;;;5.13;4.13;;;;;;;19.60;56.82;96760.56;10498772;28;20504;-72
2023/06/08 12:37:08;;;;;;;6.07;3.88;;;;;;;19.58;56.80;96758.19;10498647;28;20053;-71
2023/06/08 12:42:28;;;;;;;6.13;4.05;;;;;;;19.59;56.64;96759.00;10498586;28;20053;-71
2023/06/08 12:47:48;;;;;;;4.40;3.95;;;;;;;19.59;56.69;96767.88;10484232;28;20155;-71
2023/06/08 12:53:07;;;;;;;4.53;4.07;;;;;;;19.60;56.46;96763.25;10483847;28;20451;-71
2023/06/08 12:58:26;;;;;;;5.47;3.97;;;;;;;19.59;56.51;96756.28;10498200;28;20541;-73
2023/06/08 13:03:46;;;;;;;4.38;3.97;;;;;;;19.60;56.49;96763.25;10460325;28;20053;-73
2023/06/08 13:09:05;;;;;;;4.68;3.97;;;;;;;19.62;56.42;96769.13;10497517;28;20090;-73
2023/06/08 13:14:25;;;;;;;4.50;3.83;;;;;;;19.61;56.57;96759.47;10483593;28;20090;-73
2023/06/08 13:19:46;;;;;;;5.95;3.75;;;;;;;19.62;56.51;96763.72;10483714;28;20139;-73
2023/06/08 13:25:06;;;;;;;4.22;3.45;;;;;;;19.61;56.63;96762.16;10497009;28;20098;-73
2023/06/08 13:30:26;;;;;;;5.50;3.95;;;;;;;19.61;56.64;96771.06;10482542;28;20079;-73
2023/06/08 13:35:46;;;;;;;5.38;3.90;;;;;;;19.61;56.77;96762.94;10496671;28;20045;-72
2023/06/08 13:41:07;;;;;;;3.63;3.33;;;;;;;19.62;56.82;96759.13;10482238;28;20040;-73
2023/06/08 13:46:26;;;;;;;4.32;3.92;;;;;;;19.62;56.94;96752.91;10496276;28;20047;-73
2023/06/08 13:51:47;;;;;;;4.20;3.80;;;;;;;19.62;56.93;96758.31;10495956;28;20048;-74
2023/06/08 13:57:07;;;;;;;4.18;3.50;;;;;;;19.62;56.58;96752.91;10495889;28;20089;-73
2023/06/08 14:02:27;;;;;;;5.50;3.58;;;;;;;19.63;56.68;96746.41;10476156;28;20131;-73
2023/06/08 14:07:47;;;;;;;3.95;3.65;;;;;;;19.63;56.70;96738.31;10481145;28;20556;-73
2023/06/08 14:13:06;;;;;;;6.05;3.90;;;;;;;19.62;56.79;96728.59;10495652;28;20432;-73
2023/06/08 14:18:26;;;;;;;3.72;3.30;;;;;;;19.62;56.79;96720.50;10481616;28;20610;-73
2023/06/08 14:23:45;;;;;;;4.57;3.67;;;;;;;19.62;56.71;96715.09;10495630;28;20037;-73
2023/06/08 14:29:05;;;;;;;5.45;3.70;;;;;;;19.62;56.49;96715.09;10467914;28;20051;-74
2023/06/08 14:34:25;;;;;;;3.70;3.40;;;;;;;19.64;56.54;96723.66;10481803;28;20044;-74
2023/06/08 14:39:44;;;;;;;4.50;3.20;;;;;;;19.64;56.38;96715.53;10481913;28;20090;-73
2023/06/08 14:45:05;;;;;;;5.50;3.05;;;;;;;19.69;56.02;96716.16;10510561;28;20044;-73
2023/06/08 14:50:25;;;;;;;6.85;3.75;;;;;;;19.71;56.57;96726.66;10495567;28;20408;-74
2023/06/08 14:55:44;;;;;;;5.25;4.07;;;;;;;19.71;56.67;96730.16;10495505;28;20410;-74
2023/06/08 15:01:04;;;;;;;6.13;3.80;;;;;;;19.72;56.85;96725.56;10493821;28;20052;-72
2023/06/08 15:06:24;;;;;;;5.13;4.07;;;;;;;19.73;57.03;96732.53;10481387;28;20036;-71
2023/06/08 15:11:43;;;;;;;5.65;3.90;;;;;;;19.72;57.65;96726.34;10495143;28;20045;-72
2023/06/08 15:17:03;;;;;;;6.38;4.40;;;;;;;19.72;58.06;96718.25;10495061;28;20150;-72
2023/06/08 15:22:23;;;;;;;4.60;4.10;;;;;;;19.74;58.48;96724.13;10501820;28;20386;-72
2023/06/08 15:27:42;;;;;;;5.93;4.40;;;;;;;19.73;58.93;96710.94;10502267;28;20052;-72
2023/06/08 15:33:02;;;;;;;5.05;4.55;;;;;;;19.71;59.25;96713.94;10502063;28;20052;-72
2023/06/08 15:38:22;;;;;;;7.47;4.72;;;;;;;19.69;59.89;96709.97;10487748;28;20037;-72
2023/06/08 15:43:42;;;;;;;8.82;4.60;;;;;;;19.67;59.81;96702.19;10502372;28;20055;-72
2023/06/08 15:49:01;;;;;;;4.95;4.45;;;;;;;19.67;59.44;96701.41;10500992;28;20040;-73
2023/06/08 15:54:21;;;;;;;7.43;4.50;;;;;;;19.67;58.68;96691.38;10500828;28;20048;-73
2023/06/08 15:59:40;;;;;;;5.45;4.10;;;;;;;19.66;58.12;96687.09;10500291;28;20045;-72
2023/06/08 16:05:00;;;;;;;5.43;3.85;;;;;;;19.67;58.10;96680.56;10487483;28;20051;-72
2023/06/08 16:10:19;;;;;;;6.38;4.22;;;;;;;19.68;58.07;96684.03;10514588;28;20052;-72
2023/06/08 16:15:39;;;;;;;5.18;4.15;;;;;;;19.68;58.25;96676.75;10500221;28;20044;-71
2023/06/08 16:20:59;;;;;;;7.05;4.00;;;;;;;19.68;57.28;96668.66;10499561;28;20051;-73
2023/06/08 16:26:19;;;;;;;4.22;3.72;;;;;;;19.68;57.02;96671.34;10500024;28;20086;-72
2023/06/08 16:31:42;;;;;;;4.85;4.00;;;;;;;19.69;57.42;96667.50;10498942;28;20055;-73
2023/06/08 16:37:02;;;;;;;6.30;4.10;;;;;;;19.69;57.63;96667.50;10499230;28;20120;-72
2023/06/08 16:42:21;;;;;;;5.25;4.50;;;;;;;19.68;57.88;96665.94;10498992;28;20097;-72
2023/06/08 16:47:41;;;;;;;4.85;4.00;;;;;;;19.70;58.87;96662.91;10470513;28;20465;-72
2023/06/08 16:53:01;;;;;;;8.93;3.95;;;;;;;19.71;59.00;96664.47;10484626;28;20476;-72
2023/06/08 16:58:20;;;;;;;5.78;3.80;;;;;;;19.72;59.33;96660.72;10499278;28;20519;-73
2023/06/08 17:03:40;;;;;;;5.28;3.88;;;;;;;19.71;59.13;96659.06;10474843;28;20056;-73
2023/06/08 17:08:59;;;;;;;6.55;4.28;;;;;;;19.71;59.59;96659.06;10483667;28;20381;-73
2023/06/08 17:14:20;;;;;;;8.15;5.05;;;;;;;19.70;60.18;96669.09;10497461;28;20048;-73
2023/06/08 17:19:39;;;;;;;7.53;5.20;;;;;;;19.70;60.89;96673.72;10512136;28;20418;-73
2023/06/08 17:24:59;;;;;;;8.15;5.13;;;;;;;19.70;61.58;96668.31;10497173;28;20060;-72
2023/06/08 17:30:19;;;;;;;7.22;5.15;;;;;;;19.71;62.20;96675.28;10496827;28;20055;-72
2023/06/08 17:35:38;;;;;;;6.80;5.15;;;;;;;19.69;62.67;96681.03;10483047;28;20089;-72
2023/06/08 17:40:58;;;;;;;7.18;5.38;;;;;;;19.68;63.89;96679.47;10482051;28;20400;-72
2023/06/08 17:46:18;;;;;;;7.57;5.30;;;;;;;19.67;64.69;96683.25;10452686;28;20041;-73
2023/06/08 17:51:38;;;;;;;8.52;5.35;;;;;;;19.68;65.02;96713.78;10454362;28;20489;-72
2023/06/08 17:56:58;;;;;;;6.32;5.65;;;;;;;19.67;65.45;96733.81;10453716;28;20109;-72
2023/06/08 18:02:20;;;;;;;8.02;5.43;;;;;;;19.66;65.75;96730.34;10447181;28;20493;-72
2023/06/08 18:07:39;;;;;;;7.50;5.50;;;;;;;19.64;65.58;96713.66;10426201;28;20048;-71
2023/06/08 18:12:59;;;;;;;7.88;5.63;;;;;;;19.64;65.83;96689.34;10453835;28;20056;-71
2023/06/08 18:18:19;;;;;;;7.78;5.30;;;;;;;19.63;64.78;96685.03;10454056;28;20055;-71
2023/06/08 18:23:38;;;;;;;6.90;5.18;;;;;;;19.63;64.41;96684.25;10453736;28;20499;-72
2023/06/08 18:29:00;;;;;;;5.90;5.30;;;;;;;19.64;64.35;96683.13;10462252;28;20028;-71
2023/06/08 18:34:19;;;;;;;7.82;4.97;;;;;;;19.63;64.08;96685.03;10481731;28;20151;-71
2023/06/08 18:39:40;;;;;;;6.93;5.07;;;;;;;19.62;64.57;96678.06;10510161;28;20048;-71
2023/06/08 18:44:59;;;;;;;6.00;4.93;;;;;;;19.64;63.89;96685.81;10480993;28;20054;-71
2023/06/08 18:50:19;;;;;;;6.50;4.95;;;;;;;19.62;64.64;96669.16;10494750;28;20121;-71
2023/06/08 18:55:38;;;;;;;7.97;5.20;;;;;;;19.61;64.92;96675.69;10485547;28;20090;-71
2023/06/08 19:00:58;;;;;;;5.55;4.90;;;;;;;19.60;64.38;96747.03;10500981;28;20056;-71
2023/06/08 19:06:18;;;;;;;6.38;5.05;;;;;;;19.59;64.83;96754.38;10488472;28;20136;-71
2023/06/08 19:11:37;;;;;;;5.35;4.85;;;;;;;19.59;64.12;96765.19;10502786;28;20048;-74
2023/06/08 19:16:58;;;;;;;5.30;4.57;;;;;;;19.58;63.87;96751.97;10474115;28;20420;-75
2023/06/08 19:22:17;;;;;;;8.23;4.53;;;;;;;19.58;63.34;96754.69;10488333;28;20051;-75
2023/06/08 19:27:37;;;;;;;4.70;4.30;;;;;;;19.59;63.19;96745.47;10501682;28;20079;-74
2023/06/08 19:32:56;;;;;;;5.05;4.22;;;;;;;19.59;62.74;96756.28;10515182;28;20045;-75
2023/06/08 19:38:16;;;;;;;4.43;4.03;;;;;;;19.60;62.74;96755.97;10501394;28;20048;-75
2023/06/08 19:43:35;;;;;;;5.55;4.20;;;;;;;19.61;62.58;96749.44;10501051;28;20097;-75
2023/06/08 19:48:55;;;;;;;5.07;4.45;;;;;;;19.61;62.54;96751.34;10486774;28;20041;-74
2023/06/08 19:54:19;;;;;;;6.00;4.55;;;;;;;19.61;62.66;96752.13;10514650;28;20076;-74
2023/06/08 19:59:41;;;;;;;7.50;4.88;;;;;;;19.61;62.66;96740.53;10500698;28;20102;-74
2023/06/08 20:05:03;;;;;;;5.00;4.50;;;;;;;19.61;62.68;96735.13;10486669;28;20053;-75
2023/06/08 20:10:23;;;;;;;4.95;4.45;;;;;;;19.62;62.98;96725.88;10500317;28;20044;-75
2023/06/08 20:15:42;;;;;;;5.18;4.68;;;;;;;19.62;62.87;96725.88;10499746;28;20106;-75
2023/06/08 20:21:01;;;;;;;6.82;4.30;;;;;;;19.61;63.05;96735.91;10500709;28;20123;-75
2023/06/08 20:26:21;;;;;;;4.68;4.15;;;;;;;19.61;63.07;96745.94;10499430;28;20040;-74
2023/06/08 20:31:41;;;;;;;5.53;3.90;;;;;;;19.63;64.37;96746.41;10485111;28;20048;-74
2023/06/08 20:37:00;;;;;;;5.68;4.18;;;;;;;19.65;64.69;96753.06;10484823;28;20048;-74
2023/06/08 20:42:20;;;;;;;4.38;3.97;;;;;;;19.65;64.78;96744.97;10498651;28;20432;-74
2023/06/08 20:47:40;;;;;;;4.82;4.00;;;;;;;19.66;64.85;96738.44;10498515;28;20040;-74
2023/06/08 20:53:00;;;;;;;4.53;4.07;;;;;;;19.68;64.63;96740.81;10498437;28;20044;-73
2023/06/08 20:58:19;;;;;;;4.93;4.10;;;;;;;19.67;64.35;96733.81;10513325;28;20044;-73
2023/06/08 21:03:39;;;;;;;4.85;4.40;;;;;;;19.65;64.10;96730.66;10488755;28;20075;-73
2023/06/08 21:08:58;;;;;;;4.97;4.10;;;;;;;19.65;63.97;96741.47;10497480;28;20045;-73
2023/06/08 21:14:18;;;;;;;4.47;4.05;;;;;;;19.64;63.95;96734.47;10512585;28;20553;-73
2023/06/08 21:19:37;;;;;;;4.22;3.90;;;;;;;19.64;64.00;96726.34;10497113;28;20049;-73
2023/06/08 21:24:57;;;;;;;4.38;3.97;;;;;;;19.63;64.02;96722.88;10497299;28;20406;-73
2023/06/08 21:30:16;;;;;;;4.35;3.95;;;;;;;19.64;63.89;96723.66;10496783;28;20404;-73
2023/06/08 21:35:36;;;;;;;4.05;3.75;;;;;;;19.64;63.95;96723.66;10482709;28;20037;-73
2023/06/08 21:40:55;;;;;;;4.68;4.18;;;;;;;19.63;63.96;96717.47;10482558;28;20373;-73
2023/06/08 21:46:15;;;;;;;4.10;3.80;;;;;;;19.63;63.99;96722.09;10483532;28;20102;-73
2023/06/08 21:51:36;;;;;;;4.47;4.07;;;;;;;19.65;64.17;96730.66;10496086;28;20051;-73
2023/06/08 21:56:57;;;;;;;4.30;3.53;;;;;;;19.64;64.23;96718.25;10496435;28;20047;-73
2023/06/08 22:02:16;;;;;;;4.20;3.80;;;;;;;19.63;64.11;96724.78;10505704;28;20049;-73
2023/06/08 22:07:36;;;;;;;5.38;4.05;;;;;;;19.63;64.21;96717.47;10495837;28;20051;-73
2023/06/08 22:12:57;;;;;;;4.55;4.05;;;;;;;19.63;64.24;96712.06;10495746;28;20044;-73
2023/06/08 22:18:16;;;;;;;4.82;3.80;;;;;;;19.63;64.37;96711.28;10468300;28;20048;-73
2023/06/08 22:23:36;;;;;;;5.53;4.00;;;;;;;19.63;64.38;96711.28;10497094;28;20086;-73
2023/06/08 22:28:55;;;;;;;3.80;3.50;;;;;;;19.64;64.47;96712.84;10512595;28;20480;-73
2023/06/08 22:34:15;;;;;;;4.40;4.00;;;;;;;19.63;64.46;96708.56;10505385;28;20480;-74
2023/06/08 22:39:35;;;;;;;4.13;3.70;;;;;;;19.63;64.47;96705.88;10503861;28;20064;-73
2023/06/08 22:44:55;;;;;;;4.78;3.63;;;;;;;19.63;64.51;96711.28;10504005;28;20040;-73
2023/06/08 22:50:14;;;;;;;3.72;3.42;;;;;;;19.63;64.62;96709.34;10504405;28;20048;-73
2023/06/08 22:55:34;;;;;;;5.20;3.60;;;;;;;19.62;64.72;96704.28;10476156;28;20052;-74
2023/06/08 23:00:53;;;;;;;3.42;3.13;;;;;;;19.63;64.60;96705.88;10460405;28;20053;-74
2023/06/08 23:06:14;;;;;;;3.70;3.40;;;;;;;19.61;64.67;96706.19;10448211;28;20044;-74
2023/06/08 23:11:33;;;;;;;3.95;3.65;;;;;;;19.63;64.73;96700.47;10477386;28;20127;-73
2023/06/08 23:16:53;;;;;;;3.33;3.13;;;;;;;19.63;64.79;96695.06;10502954;28;20037;-74
2023/06/08 23:22:20;;;;;;;3.97;3.67;;;;;;;19.62;64.80;96691.56;10502822;28;20048;-74
2023/06/08 23:27:40;;;;;;;3.90;3.50;;;;;;;19.62;64.78;96686.16;10503724;28;20062;-74
2023/06/08 23:32:59;;;;;;;3.47;3.17;;;;;;;19.62;64.91;96679.94;10501178;28;20055;-74
2023/06/08 23:38:19;;;;;;;3.88;3.58;;;;;;;19.62;64.78;96679.94;10487973;28;20048;-74
2023/06/08 23:43:40;;;;;;;5.40;3.53;;;;;;;19.62;64.89;96685.34;10486401;28;20040;-74
2023/06/08 23:48:59;;;;;;;3.60;3.30;;;;;;;19.62;65.03;96678.06;10516828;28;20496;-73
2023/06/08 23:54:19;;;;;;;4.50;3.30;;;;;;;19.61;64.96;96673.75;10487428;28;20052;-74
2023/06/08 23:59:38;;;;;;;4.32;3.33;;;;;;;19.62;64.98;96677.25;10515336;28;20090;-74
